Time;durP1;ratioP1;P1;durP2;ratioP2;P2;SDS_P1;SDS_P2;PMS_P1;PMS_P2;Temp;Humidity;BMP_temperature;BMP_pressure;BME280_temperature;BME280_humidity;BME280_pressure;Samples;Min_cycle;Max_cycle;Signal;HPM_P1;HPM_P2
2022/11/02 00:00:52;;;;;;;3.00;1.98;;;;;;;15.96;60.65;98802.09;5033908;28;20198;-56
2022/11/02 00:03:18;;;;;;;7.93;2.67;;;;;;;15.86;60.91;98793.38;5033821;28;20269;-56
2022/11/02 00:05:43;;;;;;;6.32;2.70;;;;;;;15.88;59.64;98796.69;5033587;28;20261;-56
2022/11/02 00:08:09;;;;;;;8.68;2.75;;;;;;;15.92;59.74;98794.66;5033472;28;20189;-56
2022/11/02 00:10:34;;;;;;;5.45;2.75;;;;;;;15.90;59.73;98786.94;5033401;28;20189;-56
2022/11/02 00:13:00;;;;;;;10.85;2.60;;;;;;;15.83;60.90;98791.03;5033481;28;20345;-56
2022/11/02 00:15:29;;;;;;;4.78;2.45;;;;;;;15.86;60.61;98782.94;5033241;28;20209;-56
2022/11/02 00:17:59;;;;;;;7.60;3.03;;;;;;;15.64;62.21;98774.44;5033212;28;20719;-56
2022/11/02 00:20:27;;;;;;;5.10;2.40;;;;;;;15.59;62.45;98787.03;5033356;28;20212;-56
2022/11/02 00:22:56;;;;;;;3.00;2.50;;;;;;;15.41;62.54;98789.38;5033120;28;20170;-56
2022/11/02 00:25:23;;;;;;;4.30;2.50;;;;;;;15.40;63.27;98786.88;5033359;28;20193;-56
2022/11/02 00:27:48;;;;;;;6.18;2.50;;;;;;;15.31;63.28;98778.00;5033055;28;20674;-56
2022/11/02 00:30:14;;;;;;;8.57;2.83;;;;;;;15.39;63.32;98785.25;5033059;28;20174;-56
2022/11/02 00:32:40;;;;;;;3.72;2.83;;;;;;;15.38;63.73;98779.19;5033211;28;20181;-56
2022/11/02 00:35:06;;;;;;;4.60;2.50;;;;;;;15.32;64.18;98773.59;5032862;28;20555;-56
2022/11/02 00:37:31;;;;;;;8.63;3.55;;;;;;;15.21;65.11;98782.31;5015179;28;20189;-56
2022/11/02 00:39:57;;;;;;;6.93;2.90;;;;;;;15.02;66.27;98781.31;5032872;28;20668;-56
2022/11/02 00:42:22;;;;;;;7.90;3.05;;;;;;;14.94;66.66;98778.50;5032804;28;20554;-56
2022/11/02 00:44:47;;;;;;;5.70;2.95;;;;;;;14.86;66.83;98776.50;5032575;28;20202;-56
2022/11/02 00:47:13;;;;;;;5.30;3.08;;;;;;;14.93;66.51;98774.25;5032741;28;20171;-56
2022/11/02 00:49:38;;;;;;;6.13;3.00;;;;;;;14.88;66.35;98760.75;5032725;28;20170;-56
2022/11/02 00:52:04;;;;;;;5.35;2.45;;;;;;;15.00;66.37;98770.19;5032690;28;20221;-56
2022/11/02 00:54:29;;;;;;;7.93;3.17;;;;;;;15.03;65.92;98772.53;5033352;28;20194;-56
2022/11/02 00:56:55;;;;;;;5.10;3.03;;;;;;;14.96;66.08;98758.34;5032506;28;20606;-56
2022/11/02 00:59:20;;;;;;;5.90;3.35;;;;;;;15.04;65.83;98762.00;5032667;28;20261;-56
2022/11/02 01:01:48;;;;;;;6.95;2.92;;;;;;;14.97;66.62;98760.00;5032570;28;20258;-56
2022/11/02 01:04:14;;;;;;;5.90;3.08;;;;;;;14.86;67.26;98754.81;5032402;28;20175;-56
2022/11/02 01:06:43;;;;;;;9.23;3.40;;;;;;;14.79;67.54;98751.06;5032525;28;20167;-56
2022/11/02 01:09:09;;;;;;;6.70;3.30;;;;;;;14.69;67.83;98747.56;5032419;28;20680;-56
2022/11/02 01:11:34;;;;;;;6.05;2.67;;;;;;;14.71;67.93;98745.66;5032327;28;20170;-56
2022/11/02 01:14:00;;;;;;;6.55;2.95;;;;;;;14.65;68.28;98748.75;5032492;28;20251;-56
2022/11/02 01:16:26;;;;;;;5.93;2.88;;;;;;;14.65;68.13;98756.56;5032244;28;20220;-56
2022/11/02 01:18:55;;;;;;;6.38;2.75;;;;;;;14.60;68.28;98754.31;5032050;28;20261;-56
2022/11/02 01:21:22;;;;;;;8.20;3.15;;;;;;;14.65;68.18;98756.56;5032148;28;20182;-56
2022/11/02 01:23:47;;;;;;;7.78;3.30;;;;;;;14.67;68.15;98754.66;5032145;28;20655;-56
2022/11/02 01:26:13;;;;;;;10.25;3.50;;;;;;;14.74;68.07;98751.44;5032125;28;20292;-56
2022/11/02 01:28:39;;;;;;;5.50;2.75;;;;;;;14.70;68.17;98747.41;5032082;28;20175;-56
2022/11/02 01:31:06;;;;;;;8.52;3.63;;;;;;;14.75;68.14;98749.66;5032053;28;20597;-56
2022/11/02 01:33:32;;;;;;;7.70;3.42;;;;;;;14.73;67.84;98734.16;5032218;28;20214;-56
2022/11/02 01:35:57;;;;;;;5.90;3.00;;;;;;;14.84;67.35;98741.09;5031871;28;20242;-56
2022/11/02 01:38:24;;;;;;;8.20;3.70;;;;;;;14.85;67.33;98740.13;5031964;28;20185;-56
2022/11/02 01:40:49;;;;;;;8.45;3.10;;;;;;;14.78;67.86;98734.63;5031937;28;20174;-56
2022/11/02 01:43:32;;;;;;;4.78;2.58;;;;;;;14.82;67.35;98735.19;5031809;28;20202;-56
2022/11/02 01:45:58;;;;;;;6.88;3.38;;;;;;;14.94;66.90;98736.81;5034249;28;20652;-56
2022/11/02 01:48:46;;;;;;;11.32;4.30;;;;;;;14.94;66.88;98736.81;5038484;28;20178;-56
2022/11/02 01:51:35;;;;;;;6.38;3.20;;;;;;;14.89;66.23;98724.16;5038740;28;20650;-56
2022/11/02 01:54:14;;;;;;;10.52;3.05;;;;;;;14.77;67.07;98734.72;5038631;28;20159;-56
2022/11/02 01:56:43;;;;;;;3.60;3.30;;;;;;;14.62;67.87;98718.56;5038812;28;20635;-56
2022/11/02 01:59:14;;;;;;;4.82;2.95;;;;;;;14.69;67.63;98732.72;5038394;28;20170;-55
2022/11/02 02:01:40;;;;;;;6.18;3.08;;;;;;;14.71;67.90;98740.44;5038491;28;20158;-56
2022/11/02 02:04:06;;;;;;;4.20;2.72;;;;;;;14.67;67.74;98739.00;5038419;28;20659;-56
2022/11/02 02:06:32;;;;;;;6.60;2.72;;;;;;;14.74;67.60;98733.19;5038299;28;20178;-57
2022/11/02 02:09:02;;;;;;;7.32;2.90;;;;;;;14.77;67.04;98721.72;5038248;28;20652;-56
2022/11/02 02:11:29;;;;;;;4.60;2.83;;;;;;;14.78;67.07;98728.56;5038511;28;20181;-57
2022/11/02 02:13:58;;;;;;;10.52;3.00;;;;;;;14.82;67.14;98728.19;5038321;28;20182;-56
2022/11/02 02:16:32;;;;;;;10.68;3.20;;;;;;;14.80;67.44;98724.03;5038362;28;20190;-56
2022/11/02 02:19:06;;;;;;;7.95;3.22;;;;;;;14.84;67.27;98722.88;5038198;28;20178;-56
2022/11/02 02:22:11;;;;;;;7.65;3.00;;;;;;;14.82;67.33;98716.97;5038467;28;20268;-57
2022/11/02 02:24:43;;;;;;;5.80;3.55;;;;;;;14.87;66.77;98720.84;5037933;28;20194;-56
2022/11/02 02:27:17;;;;;;;8.15;2.80;;;;;;;14.91;66.45;98726.63;5038311;28;20221;-56
2022/11/02 02:30:08;;;;;;;6.30;3.53;;;;;;;14.84;67.27;98736.72;5038255;28;20228;-57
2022/11/02 02:32:58;;;;;;;6.00;2.78;;;;;;;14.83;67.39;98729.03;5038188;28;20164;-56
2022/11/02 02:35:45;;;;;;;6.35;3.10;;;;;;;14.74;67.66;98740.16;5037972;28;20198;-56
2022/11/02 02:38:21;;;;;;;5.43;3.10;;;;;;;14.58;68.42;98734.56;5038048;28;20576;-57
2022/11/02 02:40:51;;;;;;;9.25;3.85;;;;;;;14.43;69.42;98730.53;5038092;28;20163;-56
2022/11/02 02:43:29;;;;;;;5.95;3.15;;;;;;;14.39;69.74;98729.13;5038048;28;20193;-57
2022/11/02 02:46:01;;;;;;;9.65;3.22;;;;;;;14.49;69.19;98719.66;5038123;28;20169;-57
2022/11/02 02:48:28;;;;;;;9.40;3.22;;;;;;;14.61;68.38;98723.88;5038278;28;20174;-57
2022/11/02 02:50:59;;;;;;;8.27;3.15;;;;;;;14.67;67.69;98733.81;5038153;28;20569;-57
2022/11/02 02:53:32;;;;;;;5.75;3.00;;;;;;;14.62;68.14;98735.94;5038157;28;20176;-56
2022/11/02 02:56:00;;;;;;;8.80;4.13;;;;;;;14.55;68.63;98733.03;5037854;28;20190;-56
2022/11/02 02:58:31;;;;;;;8.10;3.78;;;;;;;14.50;68.89;98731.72;5034510;28;20558;-56
2022/11/02 03:00:59;;;;;;;5.50;2.90;;;;;;;14.54;68.88;98723.56;5034778;28;20225;-57
2022/11/02 03:03:27;;;;;;;7.10;3.78;;;;;;;14.57;68.92;98717.28;5034906;28;20686;-56
2022/11/02 03:06:15;;;;;;;13.48;3.25;;;;;;;14.57;68.85;98722.50;5034625;28;20174;-56
2022/11/02 03:08:46;;;;;;;7.07;3.60;;;;;;;14.60;69.06;98714.41;5035153;28;20174;-56
2022/11/02 03:11:18;;;;;;;8.98;4.13;;;;;;;14.63;68.52;98706.38;5035005;28;20794;-56
2022/11/02 03:14:01;;;;;;;7.07;2.72;;;;;;;14.63;68.38;98716.78;5034760;28;20175;-56
2022/11/02 03:16:33;;;;;;;7.05;3.88;;;;;;;14.33;70.29;98720.03;5034694;28;20167;-56
2022/11/02 03:19:16;;;;;;;14.23;3.90;;;;;;;14.29;70.49;98710.00;5034817;28;20300;-56
2022/11/02 03:21:44;;;;;;;4.70;3.40;;;;;;;14.32;70.17;98714.94;5034635;28;20212;-56
2022/11/02 03:24:18;;;;;;;7.78;3.42;;;;;;;14.20;70.79;98713.31;5034500;28;20179;-56
2022/11/02 03:26:51;;;;;;;7.93;3.80;;;;;;;14.29;70.64;98710.00;5034492;28;20157;-56
2022/11/02 03:29:35;;;;;;;10.18;4.25;;;;;;;14.35;70.33;98701.69;5034438;28;20169;-56
2022/11/02 03:32:32;;;;;;;9.13;4.45;;;;;;;14.38;70.18;98701.44;5034505;28;20556;-56
2022/11/02 03:35:04;;;;;;;4.78;3.65;;;;;;;14.37;70.17;98691.97;5034141;28;20194;-56
2022/11/02 03:37:41;;;;;;;10.45;3.80;;;;;;;14.36;70.10;98691.13;5034127;28;20166;-56
2022/11/02 03:40:13;;;;;;;14.82;4.50;;;;;;;14.37;70.49;98710.19;5033995;28;20674;-56
2022/11/02 03:42:40;;;;;;;7.63;4.10;;;;;;;14.37;70.49;98708.44;5034058;28;20170;-56
2022/11/02 03:45:11;;;;;;;7.15;3.90;;;;;;;14.41;70.22;98716.84;5033995;28;20248;-56
2022/11/02 03:47:38;;;;;;;9.43;4.00;;;;;;;14.38;70.36;98711.84;5033890;28;20181;-56
2022/11/02 03:50:07;;;;;;;12.55;4.22;;;;;;;14.33;70.94;98714.00;5033880;28;20651;-56
2022/11/02 03:52:36;;;;;;;11.20;4.43;;;;;;;14.31;70.58;98710.69;5033682;28;20592;-56
2022/11/02 03:55:10;;;;;;;8.40;4.63;;;;;;;14.23;70.57;98713.06;5033684;28;20588;-56
2022/11/02 03:57:47;;;;;;;8.48;4.93;;;;;;;14.22;70.67;98711.41;5033687;28;20190;-56
2022/11/02 04:00:16;;;;;;;10.05;4.68;;;;;;;14.22;70.97;98712.25;5033667;28;20158;-56
2022/11/02 04:02:47;;;;;;;9.35;5.43;;;;;;;14.04;71.75;98707.59;5033854;28;20181;-56
2022/11/02 04:05:12;;;;;;;7.80;4.28;;;;;;;13.95;71.82;98705.72;5033794;28;20569;-56
2022/11/02 04:10:25;;;;;;;19.00;5.03;;;;;;;14.05;71.85;98704.88;5033510;28;20234;-56
2022/11/02 04:15:34;;;;;;;15.57;5.75;;;;;;;14.04;71.91;98712.81;5033572;28;20320;-56
2022/11/02 04:20:49;;;;;;;11.15;5.32;;;;;;;14.08;71.60;98703.81;5034058;28;20560;-56
2022/11/02 04:25:58;;;;;;;16.20;6.10;;;;;;;14.04;72.44;98703.22;5033451;28;20642;-56
2022/11/02 04:28:23;;;;;;;16.90;5.93;;;;;;;14.05;72.27;98707.47;5033090;28;20178;-56
2022/11/02 04:30:49;;;;;;;17.75;6.18;;;;;;;13.93;72.67;98716.25;5033042;28;20269;-56
2022/11/02 04:33:32;;;;;;;17.00;5.30;;;;;;;13.94;72.35;98707.47;5033473;28;20228;-56
2022/11/02 04:36:00;;;;;;;16.38;5.85;;;;;;;13.84;73.18;98705.72;5032811;28;20214;-56
2022/11/02 04:38:40;;;;;;;17.73;5.70;;;;;;;13.78;73.71;98703.59;5032873;28;20179;-56
2022/11/02 04:43:52;;;;;;;15.40;5.53;;;;;;;13.65;74.10;98711.50;5032932;28;20298;-56
2022/11/02 04:46:18;;;;;;;14.23;5.22;;;;;;;13.55;74.35;98696.72;5032997;28;20760;-56
2022/11/02 04:48:43;;;;;;;9.02;4.90;;;;;;;13.66;74.26;98707.94;5032739;28;20205;-56
2022/11/02 04:51:09;;;;;;;20.73;5.65;;;;;;;13.75;74.12;98701.22;5032588;28;20651;-56
2022/11/02 04:53:34;;;;;;;12.77;5.22;;;;;;;13.81;73.39;98703.34;5032657;28;20166;-56
2022/11/02 04:55:59;;;;;;;10.73;5.38;;;;;;;13.85;73.40;98694.38;5032499;28;20288;-56
2022/11/02 04:58:25;;;;;;;14.90;5.22;;;;;;;13.87;72.97;98695.91;5032514;28;20170;-56
2022/11/02 05:00:50;;;;;;;11.63;5.03;;;;;;;13.93;72.73;98700.63;5032534;28;20170;-55
2022/11/02 05:03:16;;;;;;;14.00;5.35;;;;;;;13.96;72.36;98705.63;5032479;28;20178;-55
2022/11/02 05:05:42;;;;;;;16.17;5.70;;;;;;;13.90;72.47;98705.25;5032435;28;20182;-56
2022/11/02 05:08:07;;;;;;;14.65;5.88;;;;;;;13.86;72.95;98711.63;5032351;28;20186;-56
2022/11/02 05:10:33;;;;;;;13.18;5.40;;;;;;;13.75;73.67;98716.81;5032298;28;20225;-56
2022/11/02 05:12:59;;;;;;;15.73;5.22;;;;;;;13.80;73.66;98715.53;5032593;28;20175;-57
2022/11/02 05:15:25;;;;;;;20.50;6.60;;;;;;;13.88;73.29;98733.97;5032216;28;20694;-56
2022/11/02 05:17:51;;;;;;;13.15;5.63;;;;;;;13.73;73.62;98718.72;5032525;28;20300;-56
2022/11/02 05:20:17;;;;;;;19.38;5.95;;;;;;;13.86;73.75;98724.63;5031872;28;20220;-56
2022/11/02 05:22:42;;;;;;;15.73;6.25;;;;;;;13.87;73.83;98734.09;5032063;28;20177;-56
2022/11/02 05:25:09;;;;;;;16.40;5.78;;;;;;;13.85;73.88;98739.44;5032340;28;20256;-56
2022/11/02 05:27:34;;;;;;;17.52;5.57;;;;;;;13.80;74.35;98738.94;5032404;28;20561;-56
2022/11/02 05:29:59;;;;;;;13.52;5.40;;;;;;;13.76;74.64;98734.91;5032665;28;20182;-56
2022/11/02 05:32:26;;;;;;;12.32;4.85;;;;;;;13.62;75.29;98721.31;5032013;28;20179;-56
2022/11/02 05:34:52;;;;;;;14.57;5.45;;;;;;;13.70;75.46;98739.78;5032161;28;20207;-56
2022/11/02 05:37:17;;;;;;;13.93;5.65;;;;;;;13.63;75.99;98722.94;5032214;28;20174;-56
2022/11/02 05:39:42;;;;;;;15.80;5.68;;;;;;;13.76;76.04;98739.31;5032244;28;20257;-56
2022/11/02 05:42:08;;;;;;;15.27;5.65;;;;;;;13.84;75.95;98736.94;5031919;28;20178;-56
2022/11/02 05:44:33;;;;;;;11.07;5.38;;;;;;;13.96;74.68;98726.44;5031757;28;20237;-56
2022/11/02 05:46:59;;;;;;;10.75;5.43;;;;;;;13.99;75.00;98730.56;5031925;28;20542;-56
2022/11/02 05:49:24;;;;;;;9.77;5.20;;;;;;;14.00;75.20;98727.00;5031882;28;20201;-56
2022/11/02 05:51:50;;;;;;;29.17;7.43;;;;;;;13.97;75.40;98728.06;5031838;28;20181;-56
2022/11/02 05:54:15;;;;;;;15.48;5.45;;;;;;;14.02;75.70;98719.91;5031730;28;20174;-56
2022/11/02 05:56:40;;;;;;;13.85;4.53;;;;;;;14.12;74.49;98723.47;5031844;28;20255;-56
2022/11/02 05:59:06;;;;;;;14.65;5.22;;;;;;;14.21;74.13;98725.38;5031683;28;20643;-56
2022/11/02 06:01:32;;;;;;;11.32;5.28;;;;;;;14.34;74.29;98726.09;5031993;28;20639;-56
2022/11/02 06:03:57;;;;;;;15.20;5.03;;;;;;;14.42;74.20;98724.53;5031762;28;20269;-56
2022/11/02 06:06:22;;;;;;;12.77;5.72;;;;;;;14.56;73.52;98718.19;5031730;28;20167;-56
2022/11/02 06:08:48;;;;;;;13.77;5.15;;;;;;;14.65;71.69;98712.28;5031726;28;20175;-56
2022/11/02 06:11:14;;;;;;;15.40;4.82;;;;;;;14.76;71.06;98720.06;5031669;28;20257;-57
2022/11/02 06:13:40;;;;;;;12.25;4.28;;;;;;;14.84;70.58;98721.09;5031680;28;20663;-56
2022/11/02 06:16:10;;;;;;;11.25;5.85;;;;;;;14.94;70.89;98710.75;5031841;28;20688;-56
2022/11/02 06:18:38;;;;;;;11.38;5.25;;;;;;;14.95;70.87;98722.81;5031763;28;20245;-56
2022/11/02 06:21:04;;;;;;;17.77;5.32;;;;;;;15.07;70.30;98727.03;5031848;28;20186;-56
2022/11/02 06:23:30;;;;;;;13.95;5.30;;;;;;;15.07;70.66;98734.84;5031572;28;20248;-56
2022/11/02 06:25:57;;;;;;;16.75;6.30;;;;;;;15.12;71.07;98735.31;5031609;28;20224;-56
2022/11/02 06:28:23;;;;;;;12.35;5.53;;;;;;;15.17;71.26;98738.38;5014185;28;20281;-56
2022/11/02 06:30:49;;;;;;;24.17;5.65;;;;;;;15.19;71.01;98741.66;5031413;28;20190;-56
2022/11/02 06:33:16;;;;;;;16.60;6.03;;;;;;;15.18;71.09;98737.41;5034218;28;20185;-56
2022/11/02 06:35:50;;;;;;;20.77;7.75;;;;;;;15.36;70.79;98749.81;5035174;28;20213;-56
2022/11/02 06:38:16;;;;;;;23.77;9.35;;;;;;;15.50;70.61;98743.44;5035319;28;20174;-56
2022/11/02 06:40:42;;;;;;;21.58;8.70;;;;;;;15.55;68.98;98723.00;5035253;28;20182;-56
2022/11/02 06:43:07;;;;;;;18.73;8.70;;;;;;;15.71;68.22;98750.31;5035016;28;20233;-56
2022/11/02 06:45:33;;;;;;;19.90;7.43;;;;;;;15.68;67.56;98734.91;5035125;28;20187;-56
2022/11/02 06:47:58;;;;;;;18.80;6.53;;;;;;;15.80;67.35;98748.72;5034967;28;20620;-56
2022/11/02 06:50:24;;;;;;;15.80;6.60;;;;;;;15.81;67.26;98739.94;5034968;28;20178;-56
2022/11/02 06:52:50;;;;;;;18.85;6.22;;;;;;;15.84;67.17;98750.09;5034938;28;20636;-56
2022/11/02 06:55:16;;;;;;;18.42;7.07;;;;;;;15.90;67.10;98741.75;5034772;28;20260;-56
2022/11/02 06:57:42;;;;;;;18.38;7.22;;;;;;;15.94;67.35;98738.75;5035324;28;20189;-55
2022/11/02 07:00:11;;;;;;;13.82;7.47;;;;;;;15.98;68.22;98739.34;5033856;28;20182;-56
2022/11/02 07:02:40;;;;;;;19.38;7.18;;;;;;;16.02;68.40;98738.94;5016003;28;20183;-56
2022/11/02 07:05:06;;;;;;;21.63;7.13;;;;;;;16.12;67.60;98738.97;5033396;28;20185;-56
2022/11/02 07:07:31;;;;;;;16.25;7.20;;;;;;;16.22;66.48;98742.44;5034517;28;20178;-56
2022/11/02 07:09:57;;;;;;;15.20;6.47;;;;;;;16.20;66.76;98731.31;5034790;28;20214;-56
2022/11/02 07:12:22;;;;;;;20.35;6.75;;;;;;;16.36;66.62;98736.84;5034797;28;20178;-56
2022/11/02 07:14:47;;;;;;;18.25;6.97;;;;;;;16.60;65.39;98734.75;5034696;28;20252;-56
2022/11/02 07:17:13;;;;;;;18.48;6.30;;;;;;;16.79;63.82;98745.25;5034458;28;20581;-56
2022/11/02 07:19:38;;;;;;;13.60;5.88;;;;;;;16.81;63.16;98741.53;5034392;28;20261;-56
2022/11/02 07:22:04;;;;;;;13.30;5.65;;;;;;;16.82;62.85;98730.13;5034349;28;20558;-56
2022/11/02 07:24:29;;;;;;;14.52;6.32;;;;;;;16.87;62.84;98732.31;5034317;28;20622;-56
2022/11/02 07:26:55;;;;;;;13.75;5.80;;;;;;;16.95;62.35;98727.22;5034175;28;20628;-56
2022/11/02 07:29:20;;;;;;;9.98;5.75;;;;;;;16.95;61.90;98716.75;5034420;28;20181;-56
2022/11/02 07:31:46;;;;;;;11.20;5.78;;;;;;;16.97;61.96;98717.47;5034437;28;20208;-56
2022/11/02 07:34:12;;;;;;;14.73;6.25;;;;;;;17.00;61.72;98712.78;5033960;28;20177;-56
2022/11/02 07:36:38;;;;;;;14.65;5.47;;;;;;;17.11;61.15;98719.66;5034062;28;20181;-56
2022/11/02 07:39:03;;;;;;;13.05;5.70;;;;;;;17.12;61.00;98724.75;5034111;28;20166;-56
2022/11/02 07:41:29;;;;;;;10.38;5.15;;;;;;;17.18;60.70;98720.75;5034311;28;20734;-56
2022/11/02 07:43:54;;;;;;;13.77;5.90;;;;;;;17.26;60.45;98715.69;5033131;28;20244;-56
2022/11/02 07:46:20;;;;;;;12.07;5.43;;;;;;;17.30;60.49;98717.03;5033914;28;20166;-56
2022/11/02 07:48:46;;;;;;;9.52;4.50;;;;;;;17.32;60.41;98708.06;5033868;28;20299;-56
2022/11/02 07:51:11;;;;;;;16.35;5.60;;;;;;;17.46;59.60;98718.16;5032443;28;20176;-56
2022/11/02 07:53:37;;;;;;;14.35;5.03;;;;;;;17.46;59.77;98699.84;5032865;28;20181;-55
2022/11/02 07:56:03;;;;;;;13.30;4.70;;;;;;;17.61;59.37;98705.47;5033758;28;20193;-55
2022/11/02 07:58:29;;;;;;;13.93;4.80;;;;;;;17.66;59.28;98711.09;5033919;28;20182;-56
2022/11/02 08:00:57;;;;;;;14.82;5.63;;;;;;;17.77;58.82;98705.69;5033669;28;20201;-55
2022/11/02 08:03:23;;;;;;;13.10;4.97;;;;;;;17.84;58.21;98698.91;5016117;28;20563;-56
2022/11/02 08:05:49;;;;;;;7.95;4.70;;;;;;;17.90;58.11;98699.16;5033603;28;20169;-56
2022/11/02 08:08:17;;;;;;;8.98;4.80;;;;;;;18.00;58.10;98699.09;5033536;28;20563;-56
2022/11/02 08:10:44;;;;;;;19.63;5.50;;;;;;;18.10;58.00;98694.66;5033461;28;20561;-56
2022/11/02 08:13:12;;;;;;;13.98;5.22;;;;;;;18.19;57.87;98694.63;5033468;28;20178;-55
2022/11/02 08:15:38;;;;;;;13.80;5.72;;;;;;;18.28;57.47;98703.41;5033626;28;20190;-55
2022/11/02 08:18:07;;;;;;;11.15;5.72;;;;;;;18.37;56.99;98702.56;5033392;28;20169;-56
2022/11/02 08:20:34;;;;;;;16.48;6.00;;;;;;;18.46;57.17;98693.81;5033634;28;20174;-55
2022/11/02 08:23:00;;;;;;;13.95;5.28;;;;;;;18.52;56.68;98682.75;5033404;28;20177;-56
2022/11/02 08:25:26;;;;;;;14.10;5.82;;;;;;;18.67;55.80;98678.66;5033195;28;20165;-56
2022/11/02 08:27:55;;;;;;;11.68;5.50;;;;;;;18.75;55.69;98676.09;5033074;28;20185;-56
2022/11/02 08:30:21;;;;;;;13.75;5.60;;;;;;;18.82;55.76;98677.97;5033363;28;20178;-56
2022/11/02 08:32:46;;;;;;;12.75;5.25;;;;;;;18.93;56.01;98674.28;5015387;28;20170;-56
2022/11/02 08:35:12;;;;;;;16.25;5.70;;;;;;;19.03;55.65;98669.78;5032866;28;20575;-56
2022/11/02 08:37:37;;;;;;;18.00;5.65;;;;;;;19.13;55.00;98665.28;5033204;28;20269;-56
2022/11/02 08:40:03;;;;;;;12.73;5.45;;;;;;;19.22;54.10;98665.22;5032873;28;20174;-56
2022/11/02 08:42:28;;;;;;;20.02;5.50;;;;;;;19.33;53.56;98659.75;5033126;28;20188;-56
2022/11/02 08:44:54;;;;;;;14.85;5.63;;;;;;;19.45;53.41;98662.94;5032596;28;20646;-56
2022/11/02 08:47:20;;;;;;;12.02;5.55;;;;;;;19.56;52.97;98665.28;5033000;28;20166;-56
2022/11/02 08:49:46;;;;;;;15.07;6.15;;;;;;;19.59;52.49;98659.75;5033021;28;20181;-56
2022/11/02 08:52:11;;;;;;;15.10;6.20;;;;;;;19.70;52.32;98662.91;5032617;28;20182;-56
2022/11/02 08:54:36;;;;;;;15.75;5.85;;;;;;;19.77;51.59;98660.50;5032514;28;20194;-56
2022/11/02 08:57:02;;;;;;;15.60;6.20;;;;;;;19.87;50.76;98650.72;5031556;28;20231;-56
2022/11/02 08:59:27;;;;;;;15.27;6.32;;;;;;;19.86;50.83;98642.00;5032402;28;20169;-56
2022/11/02 09:01:53;;;;;;;12.77;5.55;;;;;;;19.98;50.34;98651.25;5032760;28;20617;-56
2022/11/02 09:04:18;;;;;;;19.45;5.72;;;;;;;20.05;50.38;98643.56;5032504;28;20613;-56
2022/11/02 09:06:43;;;;;;;15.38;6.85;;;;;;;20.14;49.64;98648.72;5032451;28;20181;-56
2022/11/02 09:09:09;;;;;;;20.50;6.47;;;;;;;20.21;48.82;98648.88;5032272;28;20166;-56
2022/11/02 09:11:34;;;;;;;31.90;7.35;;;;;;;20.26;49.05;98647.44;5032364;28;20174;-56
2022/11/02 09:14:00;;;;;;;21.63;8.25;;;;;;;20.31;48.82;98654.84;5032255;28;20178;-56
2022/11/02 09:16:26;;;;;;;22.60;8.55;;;;;;;20.36;48.92;98644.69;5032201;28;20216;-56
2022/11/02 09:18:51;;;;;;;22.63;8.73;;;;;;;20.38;48.65;98647.97;5032475;28;20643;-56
2022/11/02 09:21:17;;;;;;;24.90;8.45;;;;;;;20.42;48.69;98636.16;5032274;28;20277;-56
2022/11/02 09:23:43;;;;;;;24.15;8.52;;;;;;;20.44;48.89;98644.69;5032187;28;20173;-56
2022/11/02 09:26:08;;;;;;;21.27;7.32;;;;;;;20.48;48.13;98638.13;5032530;28;20170;-56
2022/11/02 09:28:34;;;;;;;20.48;7.05;;;;;;;20.54;47.71;98630.44;5032157;28;20170;-56
2022/11/02 09:30:59;;;;;;;23.90;7.78;;;;;;;20.57;47.62;98629.28;5032369;28;20635;-56
2022/11/02 09:33:25;;;;;;;26.92;6.57;;;;;;;20.65;47.40;98631.91;5032331;28;20177;-56
2022/11/02 09:35:50;;;;;;;25.70;6.93;;;;;;;20.71;47.49;98626.84;5031912;28;20281;-56
2022/11/02 09:38:19;;;;;;;24.30;6.68;;;;;;;20.80;47.57;98628.47;5032150;28;20219;-56
2022/11/02 09:40:52;;;;;;;21.20;6.78;;;;;;;20.85;47.33;98622.72;5031983;28;20248;-56
2022/11/02 09:43:33;;;;;;;36.38;6.32;;;;;;;20.93;47.16;98620.16;5031810;28;20213;-56
2022/11/02 09:46:03;;;;;;;22.38;6.63;;;;;;;20.98;46.79;98612.59;5032185;28;20154;-57
2022/11/02 09:48:34;;;;;;;22.30;6.63;;;;;;;21.01;46.96;98612.22;5031953;28;20161;-57
2022/11/02 09:51:13;;;;;;;38.75;6.93;;;;;;;21.00;46.84;98610.59;5032123;28;20170;-56
2022/11/02 09:53:49;;;;;;;38.67;7.88;;;;;;;20.92;46.97;98597.47;5032064;28;20169;-56
2022/11/02 09:56:18;;;;;;;28.98;6.32;;;;;;;21.01;46.58;98604.34;5031874;28;20232;-56
2022/11/02 09:58:48;;;;;;;33.50;6.75;;;;;;;21.06;46.77;98599.41;5031530;28;20659;-56
2022/11/02 10:01:32;;;;;;;22.90;6.07;;;;;;;21.08;46.54;98600.88;5031789;28;20173;-56
2022/11/02 10:04:12;;;;;;;26.05;6.65;;;;;;;21.12;46.90;98583.78;5031589;28;20174;-56
2022/11/02 10:06:41;;;;;;;21.60;5.90;;;;;;;21.22;46.77;98589.66;5032173;28;20158;-56
2022/11/02 10:09:40;;;;;;;29.20;6.07;;;;;;;21.30;46.44;98580.94;5035790;28;20174;-56
2022/11/02 10:12:06;;;;;;;20.85;6.50;;;;;;;21.39;45.92;98586.03;5035722;28;20154;-56
2022/11/02 10:14:38;;;;;;;28.90;6.00;;;;;;;21.48;45.59;98571.84;5035937;28;20212;-57
2022/11/02 10:17:11;;;;;;;23.35;5.75;;;;;;;21.53;45.38;98568.72;5035879;28;20178;-56
2022/11/02 10:19:43;;;;;;;23.40;5.78;;;;;;;21.68;44.67;98572.31;5017851;28;20176;-56
2022/11/02 10:22:14;;;;;;;23.08;6.00;;;;;;;21.79;44.16;98571.94;5035859;28;20245;-56
2022/11/02 10:24:45;;;;;;;26.70;5.88;;;;;;;21.90;43.17;98571.53;5035475;28;20261;-56
2022/11/02 10:27:20;;;;;;;25.40;6.03;;;;;;;22.04;43.65;98560.28;5035352;28;20650;-56
2022/11/02 10:30:12;;;;;;;22.67;6.28;;;;;;;22.20;43.10;98560.22;5035662;28;20185;-56
2022/11/02 10:32:39;;;;;;;18.83;5.75;;;;;;;22.35;43.34;98558.44;5035733;28;20186;-57
2022/11/02 10:35:15;;;;;;;16.88;5.28;;;;;;;22.54;41.90;98558.00;5035558;28;20288;-57
2022/11/02 10:38:02;;;;;;;25.35;5.70;;;;;;;22.69;41.35;98558.88;5035717;28;20240;-56
2022/11/02 10:40:56;;;;;;;14.38;5.15;;;;;;;22.82;41.31;98545.91;5035499;28;20158;-56
2022/11/02 10:44:10;;;;;;;20.15;5.18;;;;;;;23.04;41.78;98550.31;5035217;28;20269;-56
2022/11/02 10:47:04;;;;;;;8.80;4.63;;;;;;;23.17;41.38;98543.47;5027985;28;20193;-56
2022/11/02 10:49:32;;;;;;;14.57;4.45;;;;;;;23.30;41.74;98541.00;5017304;28;20536;-56
2022/11/02 10:51:58;;;;;;;18.42;5.28;;;;;;;23.42;41.20;98536.91;5035282;28;20180;-56
2022/11/02 10:54:25;;;;;;;10.77;5.38;;;;;;;23.52;40.67;98540.09;5035081;28;20197;-56
2022/11/02 10:56:50;;;;;;;18.98;5.25;;;;;;;23.60;40.76;98525.97;5034911;28;20224;-56
2022/11/02 10:59:18;;;;;;;15.38;4.75;;;;;;;23.71;40.64;98534.25;5034801;28;20228;-56
2022/11/02 11:02:05;;;;;;;18.48;5.25;;;;;;;23.83;40.32;98531.97;5034733;28;20206;-56
2022/11/02 11:04:32;;;;;;;15.25;5.32;;;;;;;23.98;39.63;98524.84;5035046;28;20540;-56
2022/11/02 11:07:05;;;;;;;15.30;4.70;;;;;;;24.08;38.21;98526.19;5035007;28;20203;-56
2022/11/02 11:09:50;;;;;;;15.90;5.22;;;;;;;24.17;38.50;98520.59;5034981;28;20241;-56
2022/11/02 11:12:43;;;;;;;16.40;4.47;;;;;;;24.26;38.68;98508.88;5034559;28;20170;-55
2022/11/02 11:15:21;;;;;;;12.98;5.03;;;;;;;24.36;38.83;98509.41;5034494;28;20194;-56
2022/11/02 11:17:48;;;;;;;10.85;3.90;;;;;;;24.44;38.74;98511.91;5034451;28;20166;-57
2022/11/02 11:20:32;;;;;;;14.70;4.18;;;;;;;24.53;37.98;98513.41;5033562;28;20177;-56
2022/11/02 11:23:26;;;;;;;14.95;4.80;;;;;;;24.60;36.95;98506.38;5034307;28;20217;-56
2022/11/02 11:25:54;;;;;;;13.55;4.40;;;;;;;24.65;37.60;98504.00;5017480;28;20193;-56
2022/11/02 11:28:29;;;;;;;13.10;4.22;;;;;;;24.70;37.29;98495.47;5034277;28;20184;-56
2022/11/02 11:31:05;;;;;;;15.55;3.88;;;;;;;24.74;37.06;98496.72;5034222;28;20750;-56
2022/11/02 11:33:32;;;;;;;9.90;4.20;;;;;;;24.77;36.04;98491.88;5034332;28;20158;-56
2022/11/02 11:35:58;;;;;;;17.45;4.50;;;;;;;24.80;36.06;98483.56;5034015;28;20289;-57
2022/11/02 11:38:26;;;;;;;20.70;3.92;;;;;;;24.81;35.62;98487.84;5034211;28;20178;-56
2022/11/02 11:40:55;;;;;;;7.53;3.72;;;;;;;24.82;35.57;98484.16;5034225;28;20188;-56
2022/11/02 11:43:24;;;;;;;11.95;4.90;;;;;;;24.87;35.45;98476.47;5033929;28;20221;-56
2022/11/02 11:46:01;;;;;;;13.60;4.65;;;;;;;24.93;34.58;98481.00;5034221;28;20687;-56
2022/11/02 11:48:35;;;;;;;14.93;4.70;;;;;;;25.04;34.20;98471.69;5034056;28;20262;-56
2022/11/02 11:51:02;;;;;;;13.10;4.63;;;;;;;25.12;31.76;98480.28;5033895;28;20174;-56